createdAt,value
2018-06-30T00:01:45.841Z,32.90
2018-06-30T00:04:13.941Z,34.73
2018-06-30T00:06:42.017Z,34.10
2018-06-30T00:09:10.127Z,31.80
2018-06-30T00:11:38.204Z,33.37
2018-06-30T00:14:06.315Z,28.13
2018-06-30T00:16:34.407Z,32.50
2018-06-30T00:19:02.509Z,31.43
2018-06-30T00:21:30.592Z,32.73
2018-06-30T00:23:58.736Z,31.83
2018-06-30T00:26:26.842Z,34.20
2018-06-30T00:28:54.968Z,37.67
2018-06-30T00:31:23.072Z,31.53
2018-06-30T00:33:51.192Z,33.50
2018-06-30T00:36:19.303Z,36.60
2018-06-30T00:38:47.424Z,28.77
2018-06-30T00:41:15.530Z,32.73
2018-06-30T00:43:43.649Z,28.53
2018-06-30T00:46:11.765Z,35.10
2018-06-30T00:48:39.998Z,33.70
2018-06-30T00:51:08.000Z,34.47
2018-06-30T00:53:36.116Z,31.03
2018-06-30T00:56:04.215Z,29.77
2018-06-30T00:58:32.340Z,29.40
2018-06-30T01:01:00.444Z,30.30
2018-06-30T01:03:28.558Z,30.83
2018-06-30T01:05:56.656Z,29.77
2018-06-30T01:08:24.799Z,28.73
2018-06-30T01:10:52.895Z,33.90
2018-06-30T01:13:21.008Z,28.47
2018-06-30T01:15:49.117Z,30.27
2018-06-30T01:18:17.253Z,31.03
2018-06-30T01:20:45.351Z,26.60
2018-06-30T01:23:13.693Z,28.37
2018-06-30T01:25:41.789Z,28.20
2018-06-30T01:28:09.911Z,26.57
2018-06-30T01:30:38.000Z,26.97
2018-06-30T01:33:06.103Z,28.37
2018-06-30T01:35:34.217Z,33.23
2018-06-30T01:38:02.329Z,27.87
2018-06-30T01:40:30.469Z,28.13
2018-06-30T01:42:58.575Z,27.23
2018-06-30T01:45:26.684Z,30.70
2018-06-30T01:47:54.771Z,29.63
2018-06-30T01:50:22.879Z,27.83
2018-06-30T01:52:50.980Z,29.07
2018-06-30T01:55:19.092Z,32.10
2018-06-30T01:57:47.184Z,29.67
2018-06-30T02:00:15.325Z,27.23
2018-06-30T02:02:43.412Z,30.10
2018-06-30T02:05:11.531Z,30.67
2018-06-30T02:07:39.623Z,28.80
2018-06-30T02:10:07.732Z,28.13
2018-06-30T02:12:35.864Z,29.83
2018-06-30T02:15:04.507Z,33.87
2018-06-30T02:17:32.610Z,30.00
2018-06-30T02:20:00.755Z,33.03
2018-06-30T02:22:28.856Z,29.30
2018-06-30T02:24:56.968Z,31.60
2018-06-30T02:27:25.121Z,34.30
2018-06-30T02:29:53.240Z,26.97
2018-06-30T02:32:21.352Z,31.57
2018-06-30T02:34:49.477Z,30.43
2018-06-30T02:37:17.584Z,26.20
2018-06-30T02:39:46.008Z,34.70
2018-06-30T02:42:14.148Z,27.90
2018-06-30T02:44:42.277Z,32.77
2018-06-30T02:47:10.368Z,28.20
2018-06-30T02:49:38.473Z,29.10
2018-06-30T02:52:06.579Z,30.10
2018-06-30T02:54:34.736Z,28.57
2018-06-30T02:57:02.896Z,27.90
2018-06-30T02:59:31.071Z,28.73
2018-06-30T03:01:59.180Z,24.30
2018-06-30T03:04:27.326Z,26.97
2018-06-30T03:06:55.424Z,29.37
2018-06-30T03:09:23.536Z,26.63
2018-06-30T03:11:51.950Z,24.63
2018-06-30T03:14:20.084Z,26.83
2018-06-30T03:16:48.192Z,26.30
2018-06-30T03:19:16.284Z,29.23
2018-06-30T03:21:44.419Z,24.30
2018-06-30T03:24:12.551Z,27.27
2018-06-30T03:26:40.672Z,25.00
2018-06-30T03:29:08.784Z,24.33
2018-06-30T03:31:37.023Z,25.07
2018-06-30T03:34:05.076Z,28.10
2018-06-30T03:36:33.200Z,29.63
2018-06-30T03:39:02.147Z,30.20
2018-06-30T03:41:30.292Z,31.53
2018-06-30T03:43:58.416Z,32.87
2018-06-30T03:46:26.524Z,34.20
2018-06-30T03:48:54.616Z,31.50
2018-06-30T03:51:22.737Z,31.40
2018-06-30T03:53:50.833Z,32.97
2018-06-30T03:56:18.967Z,31.10
2018-06-30T03:58:47.075Z,28.60
2018-06-30T04:01:15.205Z,27.97
2018-06-30T04:03:43.324Z,26.47
2018-06-30T04:06:11.431Z,28.57
2018-06-30T04:08:39.532Z,29.93
2018-06-30T04:11:07.650Z,22.97
2018-06-30T04:13:35.748Z,24.50
2018-06-30T04:16:03.872Z,22.27
2018-06-30T04:18:31.959Z,21.27
2018-06-30T04:21:00.069Z,24.47
2018-06-30T04:23:28.172Z,14.00
2018-06-30T04:25:56.282Z,13.60
2018-06-30T04:28:24.378Z,15.00
2018-06-30T04:30:52.484Z,11.07
2018-06-30T04:33:20.575Z,12.00
2018-06-30T04:35:48.684Z,13.40
2018-06-30T04:38:16.793Z,12.90
2018-06-30T04:40:44.901Z,14.70
2018-06-30T04:43:13.017Z,13.13
2018-06-30T04:45:41.128Z,13.23
2018-06-30T04:48:09.371Z,13.83
2018-06-30T04:50:37.508Z,12.40
2018-06-30T04:53:05.688Z,12.03
2018-06-30T04:55:33.796Z,14.20
2018-06-30T04:58:01.926Z,12.70
2018-06-30T05:00:30.052Z,12.40
2018-06-30T05:02:58.156Z,12.17
2018-06-30T05:05:26.254Z,11.37
2018-06-30T05:07:54.811Z,12.67
2018-06-30T05:10:22.911Z,15.30
2018-06-30T05:12:51.030Z,13.33
2018-06-30T05:15:19.128Z,12.57
2018-06-30T05:17:47.270Z,10.40
2018-06-30T05:20:15.372Z,15.33
2018-06-30T05:22:43.480Z,10.80
2018-06-30T05:25:11.584Z,10.60
2018-06-30T05:27:39.692Z,11.50
2018-06-30T05:30:07.800Z,10.93
2018-06-30T05:32:35.918Z,10.93
2018-06-30T05:35:04.029Z,11.10
2018-06-30T05:37:32.140Z,13.07
2018-06-30T05:40:00.233Z,10.87
2018-06-30T05:42:28.348Z,12.00
2018-06-30T05:44:56.444Z,11.73
2018-06-30T05:47:24.567Z,11.30
2018-06-30T05:49:52.656Z,12.80
2018-06-30T05:52:20.768Z,12.53
2018-06-30T05:54:48.861Z,10.70
2018-06-30T05:57:16.980Z,13.10
2018-06-30T05:59:45.103Z,9.70
2018-06-30T06:02:13.238Z,13.57
2018-06-30T06:04:41.338Z,13.10
2018-06-30T06:07:09.439Z,16.20
2018-06-30T06:09:37.575Z,10.00
2018-06-30T06:12:05.669Z,14.20
2018-06-30T06:14:33.764Z,11.50
2018-06-30T06:17:02.072Z,11.00
2018-06-30T06:19:30.164Z,11.30
2018-06-30T06:21:58.357Z,11.77
2018-06-30T06:24:26.460Z,10.60
2018-06-30T06:26:54.594Z,10.70
2018-06-30T06:29:22.699Z,11.07
2018-06-30T06:31:50.808Z,13.90
2018-06-30T06:34:18.904Z,11.00
2018-06-30T06:36:47.032Z,10.33
2018-06-30T06:39:15.128Z,13.73
2018-06-30T06:41:43.402Z,10.83
2018-06-30T06:44:11.452Z,8.87
2018-06-30T06:46:39.584Z,13.03
2018-06-30T06:49:07.684Z,10.23
2018-06-30T06:51:35.816Z,11.87
2018-06-30T06:54:03.936Z,11.07
2018-06-30T06:56:37.938Z,13.13
2018-06-30T06:59:07.551Z,13.77
2018-06-30T07:01:37.090Z,12.00
2018-06-30T07:04:05.228Z,10.30
2018-06-30T07:06:33.340Z,11.13
2018-06-30T07:09:01.449Z,12.43
2018-06-30T07:11:29.548Z,12.40
2018-06-30T07:13:57.651Z,10.40
2018-06-30T07:16:25.744Z,11.83
2018-06-30T07:18:53.856Z,13.57
2018-06-30T07:21:21.955Z,13.80
2018-06-30T07:23:50.064Z,13.70
2018-06-30T07:26:24.612Z,12.93
2018-06-30T07:28:52.724Z,11.00
2018-06-30T07:31:20.820Z,13.67
2018-06-30T07:33:48.949Z,13.67
2018-06-30T07:36:17.090Z,17.27
2018-06-30T07:38:45.176Z,13.80
2018-06-30T07:41:13.696Z,12.33
2018-06-30T07:43:42.365Z,13.27
2018-06-30T07:46:10.463Z,12.93
2018-06-30T07:48:38.572Z,16.40
2018-06-30T07:51:06.665Z,13.40
2018-06-30T07:53:34.775Z,13.00
2018-06-30T07:56:02.906Z,15.70
2018-06-30T07:58:31.164Z,13.30
2018-06-30T08:00:59.156Z,11.40
2018-06-30T08:03:27.272Z,11.00
2018-06-30T08:05:55.396Z,16.97
2018-06-30T08:08:23.530Z,12.90
2018-06-30T08:10:51.625Z,13.77
2018-06-30T08:13:19.752Z,14.57
2018-06-30T08:15:47.868Z,13.30
2018-06-30T08:18:15.992Z,12.27
2018-06-30T08:20:44.101Z,12.30
2018-06-30T08:23:12.230Z,13.93
2018-06-30T08:25:40.340Z,12.30
2018-06-30T08:28:08.508Z,13.60
2018-06-30T08:30:36.616Z,12.53
2018-06-30T08:33:04.835Z,14.77
2018-06-30T08:35:32.956Z,11.90
2018-06-30T08:38:01.068Z,15.27
2018-06-30T08:40:29.184Z,11.17
2018-06-30T08:42:57.308Z,14.63
2018-06-30T08:45:25.567Z,12.73
2018-06-30T08:47:53.684Z,12.40
2018-06-30T08:50:21.816Z,12.23
2018-06-30T08:52:49.929Z,16.30
2018-06-30T08:55:18.069Z,14.20
2018-06-30T08:57:46.279Z,15.43
2018-06-30T09:00:14.432Z,13.30
2018-06-30T09:02:42.528Z,12.03
2018-06-30T09:05:10.649Z,13.53
2018-06-30T09:07:38.752Z,12.80
2018-06-30T09:10:06.925Z,16.13
2018-06-30T09:12:35.033Z,14.20
2018-06-30T09:15:03.205Z,11.37
2018-06-30T09:17:31.311Z,13.03
2018-06-30T09:19:59.425Z,11.30
2018-06-30T09:22:27.536Z,11.87
2018-06-30T09:24:55.660Z,11.90
2018-06-30T09:27:23.764Z,16.60
2018-06-30T09:29:51.897Z,12.23
2018-06-30T09:32:20.005Z,11.37
2018-06-30T09:34:48.190Z,11.90
2018-06-30T09:37:16.288Z,11.50
2018-06-30T09:39:44.403Z,10.43
2018-06-30T09:42:12.497Z,9.90
2018-06-30T09:44:40.679Z,9.10
2018-06-30T09:47:08.808Z,10.23
2018-06-30T09:49:36.965Z,10.30
2018-06-30T09:52:05.069Z,11.63
2018-06-30T09:54:33.193Z,12.00
2018-06-30T09:57:01.316Z,13.20
2018-06-30T09:59:29.449Z,15.33
2018-06-30T10:01:57.552Z,13.23
2018-06-30T10:04:25.680Z,12.37
2018-06-30T10:06:53.821Z,15.57
2018-06-30T10:09:21.908Z,11.93
2018-06-30T10:11:50.029Z,13.00
2018-06-30T10:14:18.144Z,10.77
2018-06-30T10:16:46.247Z,12.00
2018-06-30T10:19:14.455Z,9.80
2018-06-30T10:21:42.496Z,10.80
2018-06-30T10:24:10.653Z,12.17
2018-06-30T10:26:39.000Z,15.70
2018-06-30T10:29:07.112Z,13.90
2018-06-30T10:31:35.217Z,14.90
2018-06-30T10:34:03.320Z,15.67
2018-06-30T10:36:31.443Z,12.97
2018-06-30T10:38:59.552Z,19.57
2018-06-30T10:41:27.675Z,15.23
2018-06-30T10:43:55.785Z,13.50
2018-06-30T10:46:23.903Z,11.47
2018-06-30T10:48:52.012Z,10.83
2018-06-30T10:51:20.208Z,10.40
2018-06-30T10:53:48.311Z,12.97
2018-06-30T10:56:16.419Z,11.07
2018-06-30T10:58:44.790Z,11.10
2018-06-30T11:01:12.924Z,8.40
2018-06-30T11:03:41.029Z,9.70
2018-06-30T11:06:09.140Z,9.10
2018-06-30T11:08:37.280Z,11.20
2018-06-30T11:11:05.542Z,9.63
2018-06-30T11:13:33.589Z,9.80
2018-06-30T11:16:01.712Z,9.23
2018-06-30T11:18:29.808Z,9.23
2018-06-30T11:20:57.972Z,8.83
2018-06-30T11:23:26.068Z,10.60
2018-06-30T11:25:54.176Z,8.70
2018-06-30T11:28:22.277Z,8.63
2018-06-30T11:30:50.383Z,9.87
2018-06-30T11:33:18.535Z,10.40
2018-06-30T11:35:46.689Z,10.03
2018-06-30T11:38:14.883Z,9.00
2018-06-30T11:40:43.041Z,8.73
2018-06-30T11:43:11.124Z,11.03
2018-06-30T11:45:39.259Z,9.43
2018-06-30T11:48:07.370Z,12.70
2018-06-30T11:50:35.480Z,9.40
2018-06-30T11:53:03.635Z,8.53
2018-06-30T11:55:31.754Z,9.13
2018-06-30T11:57:59.885Z,11.97
2018-06-30T12:00:28.021Z,14.93
2018-06-30T12:02:56.132Z,13.10
2018-06-30T12:05:24.245Z,12.10
2018-06-30T12:07:52.428Z,12.13
2018-06-30T12:10:20.534Z,13.67
2018-06-30T12:12:48.624Z,11.53
2018-06-30T12:15:16.984Z,12.53
2018-06-30T12:17:45.076Z,12.47
2018-06-30T12:20:13.172Z,14.23
2018-06-30T12:22:41.527Z,13.07
2018-06-30T12:25:09.618Z,11.40
2018-06-30T12:27:37.736Z,11.63
2018-06-30T12:30:05.832Z,12.60
2018-06-30T12:32:33.944Z,12.60
2018-06-30T12:35:02.043Z,11.77
2018-06-30T12:37:30.161Z,9.10
2018-06-30T12:39:58.247Z,8.97
2018-06-30T12:42:26.361Z,7.50
2018-06-30T12:44:54.459Z,8.67
2018-06-30T12:47:22.565Z,9.40
2018-06-30T12:49:51.033Z,7.60
2018-06-30T12:52:19.139Z,8.20
2018-06-30T12:54:47.273Z,8.73
2018-06-30T12:57:15.393Z,13.80
2018-06-30T12:59:43.601Z,7.83
2018-06-30T13:02:11.719Z,9.10
2018-06-30T13:04:39.828Z,11.00
2018-06-30T13:07:07.948Z,7.37
2018-06-30T13:09:36.088Z,7.30
2018-06-30T13:12:04.208Z,8.07
2018-06-30T13:14:32.367Z,7.00
2018-06-30T13:17:00.469Z,7.20
2018-06-30T13:19:28.568Z,5.80
2018-06-30T13:21:56.681Z,7.17
2018-06-30T13:24:24.789Z,10.57
2018-06-30T13:26:52.901Z,8.90
2018-06-30T13:29:20.997Z,7.83
2018-06-30T13:31:49.264Z,9.03
2018-06-30T13:34:17.366Z,7.83
2018-06-30T13:36:45.492Z,8.53
2018-06-30T13:39:14.800Z,11.30
2018-06-30T13:41:43.295Z,11.80
2018-06-30T13:44:11.975Z,12.13
2018-06-30T13:46:40.096Z,7.27
2018-06-30T13:49:08.288Z,9.53
2018-06-30T13:51:36.807Z,10.03
2018-06-30T13:54:05.021Z,9.57
2018-06-30T13:56:33.153Z,9.70
2018-06-30T13:59:01.280Z,9.60
2018-06-30T14:01:29.416Z,11.20
2018-06-30T14:03:57.508Z,13.53
2018-06-30T14:06:25.608Z,12.97
2018-06-30T14:08:53.730Z,12.27
2018-06-30T14:11:21.852Z,12.60
2018-06-30T14:13:49.959Z,10.67
2018-06-30T14:16:18.063Z,14.30
2018-06-30T14:18:46.164Z,10.60
2018-06-30T14:21:14.303Z,10.90
2018-06-30T14:23:42.420Z,15.40
2018-06-30T14:26:10.512Z,9.90
2018-06-30T14:28:38.689Z,10.70
2018-06-30T14:31:06.772Z,11.30
2018-06-30T14:33:34.892Z,11.83
2018-06-30T14:36:03.006Z,12.20
2018-06-30T14:38:31.118Z,15.07
2018-06-30T14:40:59.217Z,14.93
2018-06-30T14:43:27.329Z,12.20
2018-06-30T14:45:55.492Z,13.00
2018-06-30T14:48:24.467Z,13.43
2018-06-30T14:50:52.568Z,13.53
2018-06-30T14:53:20.703Z,11.13
2018-06-30T14:55:48.811Z,16.07
2018-06-30T14:58:16.927Z,16.80
2018-06-30T15:00:45.046Z,14.47
2018-06-30T15:03:13.180Z,14.73
2018-06-30T15:05:41.280Z,15.23
2018-06-30T15:08:09.392Z,16.17
2018-06-30T15:10:37.493Z,15.93
2018-06-30T15:13:05.639Z,14.07
2018-06-30T15:15:33.744Z,17.63
2018-06-30T15:18:01.876Z,16.63
2018-06-30T15:20:29.998Z,15.13
2018-06-30T15:22:58.119Z,18.83
2018-06-30T15:25:26.228Z,15.47
2018-06-30T15:27:54.356Z,14.73
2018-06-30T15:30:22.472Z,13.90
2018-06-30T15:32:50.604Z,14.40
2018-06-30T15:35:18.704Z,15.30
2018-06-30T15:37:46.852Z,20.90
2018-06-30T15:40:14.951Z,17.60
2018-06-30T15:42:43.151Z,15.47
2018-06-30T15:45:11.227Z,15.30
2018-06-30T15:47:39.645Z,15.20
2018-06-30T15:50:07.896Z,20.33
2018-06-30T15:52:36.020Z,15.20
2018-06-30T15:55:04.472Z,15.93
2018-06-30T15:57:32.577Z,16.57
2018-06-30T16:00:00.704Z,15.60
2018-06-30T16:02:28.800Z,17.40
2018-06-30T16:04:56.929Z,18.20
2018-06-30T16:07:25.044Z,13.83
2018-06-30T16:09:53.187Z,17.70
2018-06-30T16:12:21.300Z,17.83
2018-06-30T16:14:49.420Z,15.80
2018-06-30T16:17:17.537Z,16.63
2018-06-30T16:19:45.652Z,15.80
2018-06-30T16:22:13.771Z,16.43
2018-06-30T16:24:41.937Z,14.67
2018-06-30T16:27:10.040Z,16.43
2018-06-30T16:29:38.176Z,15.40
2018-06-30T16:32:06.296Z,15.20
2018-06-30T16:34:34.408Z,15.43
2018-06-30T16:37:02.516Z,14.70
2018-06-30T16:39:30.651Z,18.73
2018-06-30T16:41:59.039Z,15.83
2018-06-30T16:44:27.162Z,18.00
2018-06-30T16:46:55.332Z,17.17
2018-06-30T16:49:23.448Z,17.10
2018-06-30T16:51:51.583Z,15.87
2018-06-30T16:54:19.812Z,14.97
2018-06-30T16:56:47.904Z,14.03
2018-06-30T16:59:16.032Z,15.60
2018-06-30T17:01:44.165Z,19.83
2018-06-30T17:04:12.288Z,17.53
2018-06-30T17:06:40.388Z,15.57
2018-06-30T17:09:10.531Z,20.33
2018-06-30T17:11:38.636Z,17.23
2018-06-30T17:14:13.244Z,15.67
2018-06-30T17:16:41.353Z,15.10
2018-06-30T17:19:09.524Z,13.93
2018-06-30T17:21:37.640Z,13.83
2018-06-30T17:24:06.005Z,15.33
2018-06-30T17:26:34.153Z,15.10
2018-06-30T17:29:02.277Z,19.33
2018-06-30T17:31:30.381Z,16.93
2018-06-30T17:33:58.500Z,17.90
2018-06-30T17:36:26.604Z,16.83
2018-06-30T17:38:54.723Z,15.10
2018-06-30T17:41:22.847Z,18.77
2018-06-30T17:43:51.008Z,15.33
2018-06-30T17:46:19.149Z,20.57
2018-06-30T17:48:47.263Z,17.73
2018-06-30T17:51:15.412Z,14.50
2018-06-30T17:53:43.512Z,14.23
2018-06-30T17:56:11.654Z,13.70
2018-06-30T17:58:39.791Z,16.27
2018-06-30T18:01:07.924Z,14.30
2018-06-30T18:03:36.037Z,14.50
2018-06-30T18:06:04.172Z,16.53
2018-06-30T18:08:32.284Z,13.40
2018-06-30T18:11:00.413Z,17.83
2018-06-30T18:13:28.532Z,11.90
2018-06-30T18:15:56.723Z,11.17
2018-06-30T18:18:24.817Z,11.03
2018-06-30T18:20:52.931Z,10.13
2018-06-30T18:23:21.027Z,11.20
2018-06-30T18:25:49.148Z,10.77
2018-06-30T18:28:17.256Z,13.40
2018-06-30T18:30:45.383Z,8.40
2018-06-30T18:33:13.483Z,8.53
2018-06-30T18:35:41.597Z,6.33
2018-06-30T18:38:09.739Z,6.83
2018-06-30T18:40:37.854Z,7.47
2018-06-30T18:43:05.943Z,6.43
2018-06-30T18:45:34.188Z,5.90
2018-06-30T18:48:02.328Z,6.77
2018-06-30T18:50:30.449Z,10.73
2018-06-30T18:52:58.556Z,6.33
2018-06-30T18:55:26.677Z,5.90
2018-06-30T18:57:54.812Z,7.10
2018-06-30T19:00:22.925Z,7.37
2018-06-30T19:05:25.493Z,5.97
2018-06-30T19:07:53.585Z,5.43
2018-06-30T19:10:21.772Z,14.53
2018-06-30T19:12:50.123Z,6.10
2018-06-30T19:15:18.236Z,6.17
2018-06-30T19:17:46.356Z,5.87
2018-06-30T19:20:14.644Z,7.40
2018-06-30T19:22:42.737Z,5.70
2018-06-30T19:25:10.992Z,10.70
2018-06-30T19:27:39.099Z,7.30
2018-06-30T19:30:07.219Z,5.30
2018-06-30T19:32:35.349Z,7.90
2018-06-30T19:35:03.468Z,8.40
2018-06-30T19:37:31.589Z,11.70
2018-06-30T19:39:59.688Z,6.77
2018-06-30T19:42:27.792Z,9.60
2018-06-30T19:44:55.876Z,8.00
2018-06-30T19:47:23.988Z,7.03
2018-06-30T19:49:52.083Z,5.00
2018-06-30T19:52:20.197Z,5.97
2018-06-30T19:54:48.301Z,5.40
2018-06-30T19:57:16.428Z,8.00
2018-06-30T19:59:44.527Z,5.97
2018-06-30T20:02:12.645Z,7.60
2018-06-30T20:04:40.732Z,7.53
2018-06-30T20:07:08.844Z,6.60
2018-06-30T20:09:37.116Z,9.23
2018-06-30T20:12:05.453Z,7.00
2018-06-30T20:14:33.535Z,6.47
2018-06-30T20:17:01.747Z,8.70
2018-06-30T20:19:30.090Z,5.37
2018-06-30T20:21:58.220Z,12.63
2018-06-30T20:24:26.385Z,5.60
2018-06-30T20:26:54.652Z,8.20
2018-06-30T20:29:22.919Z,6.50
2018-06-30T20:31:51.088Z,7.10
2018-06-30T20:34:19.194Z,9.40
2018-06-30T20:36:47.458Z,15.03
2018-06-30T20:39:15.667Z,11.10
2018-06-30T20:41:43.767Z,6.20
2018-06-30T20:44:11.921Z,10.33
2018-06-30T20:46:40.080Z,6.70
2018-06-30T20:49:08.340Z,8.57
2018-06-30T20:51:36.520Z,6.10
2018-06-30T20:54:04.712Z,10.30
2018-06-30T20:56:32.901Z,4.43
2018-06-30T20:59:01.076Z,7.23
2018-06-30T21:01:29.297Z,6.70
2018-06-30T21:03:57.379Z,7.37
2018-06-30T21:06:25.508Z,7.27
2018-06-30T21:08:53.592Z,7.80
2018-06-30T21:11:21.737Z,5.47
2018-06-30T21:13:49.859Z,6.73
2018-06-30T21:16:18.009Z,6.53
2018-06-30T21:18:46.129Z,6.20
2018-06-30T21:21:14.208Z,6.50
2018-06-30T21:23:42.340Z,7.53
2018-06-30T21:26:10.441Z,6.80
2018-06-30T21:28:38.553Z,14.23
2018-06-30T21:31:06.657Z,12.93
2018-06-30T21:33:34.774Z,9.87
2018-06-30T21:36:02.885Z,10.93
2018-06-30T21:38:30.997Z,6.73
2018-06-30T21:40:59.080Z,5.70
2018-06-30T21:43:27.178Z,6.50
2018-06-30T21:45:55.281Z,4.93
2018-06-30T21:48:23.384Z,4.67
2018-06-30T21:50:51.480Z,10.73
2018-06-30T21:53:19.585Z,4.50
2018-06-30T21:55:47.678Z,9.90
2018-06-30T21:58:15.787Z,6.07
2018-06-30T22:00:49.908Z,5.03
2018-06-30T22:03:18.592Z,8.40
2018-06-30T22:05:46.709Z,4.63
2018-06-30T22:08:14.821Z,6.77
2018-06-30T22:10:43.067Z,3.77
2018-06-30T22:13:11.183Z,4.30
2018-06-30T22:15:39.293Z,6.67
2018-06-30T22:18:07.664Z,4.13
2018-06-30T22:20:36.420Z,5.83
2018-06-30T22:23:04.841Z,3.77
2018-06-30T22:25:33.411Z,3.77
2018-06-30T22:28:01.893Z,6.03
2018-06-30T22:30:30.001Z,4.33
2018-06-30T22:32:58.141Z,4.37
2018-06-30T22:35:26.256Z,4.53
2018-06-30T22:37:54.795Z,3.20
2018-06-30T22:40:22.952Z,8.17
2018-06-30T22:42:51.076Z,3.73
2018-06-30T22:45:19.164Z,3.10
2018-06-30T22:47:47.592Z,4.27
2018-06-30T22:50:16.992Z,6.60
2018-06-30T22:52:45.112Z,4.23
2018-06-30T22:55:13.464Z,3.10
2018-06-30T22:57:41.597Z,4.80
2018-06-30T23:00:11.100Z,5.80
2018-06-30T23:02:39.605Z,3.00
2018-06-30T23:05:08.274Z,4.30
2018-06-30T23:07:36.773Z,4.53
2018-06-30T23:10:04.932Z,3.87
2018-06-30T23:12:33.028Z,3.50
2018-06-30T23:15:01.470Z,5.13
2018-06-30T23:17:29.583Z,4.63
2018-06-30T23:19:57.696Z,6.70
2018-06-30T23:22:32.473Z,3.07
2018-06-30T23:25:00.594Z,5.13
2018-06-30T23:27:28.712Z,3.90
2018-06-30T23:29:56.833Z,5.07
2018-06-30T23:32:24.925Z,4.60
2018-06-30T23:34:53.150Z,5.13
2018-06-30T23:37:21.253Z,3.93
2018-06-30T23:39:49.368Z,3.73
2018-06-30T23:42:17.453Z,3.20
2018-06-30T23:44:45.560Z,7.33
2018-06-30T23:47:13.648Z,3.47
2018-06-30T23:49:41.763Z,3.80
2018-06-30T23:52:09.866Z,3.90
2018-06-30T23:54:38.005Z,3.87
2018-06-30T23:57:06.109Z,3.00
2018-06-30T23:59:34.366Z,2.80
